Time;durP1;ratioP1;P1;durP2;ratioP2;P2;SDS_P1;SDS_P2;PMS_P1;PMS_P2;Temp;Humidity;BMP_temperature;BMP_pressure;BME280_temperature;BME280_humidity;BME280_pressure;Samples;Min_cycle;Max_cycle;Signal;HPM_P1;HPM_P2
2021/08/11 00:01:38;;;;;;;965.93;856.43;;;;;;;14.30;81.96;101672.63;4977816;28;20630;-77
2021/08/11 00:04:04;;;;;;;1003.23;891.83;;;;;;;15.11;82.06;101806.81;4977554;28;20218;-77
2021/08/11 00:06:29;;;;;;;965.07;855.00;;;;;;;15.08;82.28;101807.22;4973891;28;20209;-77
2021/08/11 00:08:55;;;;;;;922.00;817.20;;;;;;;14.29;81.88;101680.91;4973471;28;20202;-77
2021/08/11 00:11:20;;;;;;;978.37;861.27;;;;;;;14.77;81.84;101737.56;4977882;28;20264;-77
2021/08/11 00:13:46;;;;;;;973.13;849.97;;;;;;;13.86;84.22;101655.03;4978607;28;20285;-77
2021/08/11 00:16:11;;;;;;;960.20;843.70;;;;;;;14.26;85.92;101728.00;4979533;28;20218;-77
2021/08/11 00:18:37;;;;;;;992.60;880.43;;;;;;;14.54;83.71;101751.41;4977412;28;21499;-77
2021/08/11 00:21:03;;;;;;;1033.03;878.03;;;;;;;14.95;83.76;101807.19;4981178;28;20195;-76
2021/08/11 00:23:28;;;;;;;984.07;875.70;;;;;;;12.63;84.19;101476.91;4979795;28;20260;-77
2021/08/11 00:25:54;;;;;;;1005.23;875.70;;;;;;;14.95;83.70;101809.88;4977276;28;20448;-77
2021/08/11 00:28:21;;;;;;;990.30;877.57;;;;;;;14.69;82.78;101792.56;4976561;28;20264;-77
2021/08/11 00:30:47;;;;;;;974.73;864.63;;;;;;;15.02;82.55;101811.59;4976569;28;20464;-77
2021/08/11 00:33:12;;;;;;;1033.13;853.30;;;;;;;14.63;81.91;101767.22;4979982;28;20438;-77
2021/08/11 00:35:37;;;;;;;995.70;872.50;;;;;;;14.14;82.14;101686.44;4979216;28;20197;-77
2021/08/11 00:38:03;;;;;;;985.23;871.37;;;;;;;14.49;82.62;101770.88;4978935;28;20273;-77
2021/08/11 00:40:31;;;;;;;1000.00;859.33;;;;;;;14.55;83.73;101786.31;4978554;28;20197;-77
2021/08/11 00:43:03;;;;;;;979.53;870.90;;;;;;;14.64;82.68;101768.88;4976538;28;20681;-77
2021/08/11 00:45:29;;;;;;;980.37;863.10;;;;;;;14.85;82.18;101802.19;4979386;28;20543;-77
2021/08/11 00:47:54;;;;;;;969.30;858.47;;;;;;;14.35;81.13;101723.25;4981433;28;20965;-77
2021/08/11 00:50:20;;;;;;;965.13;858.17;;;;;;;14.88;82.18;101818.00;4979139;28;20202;-77
2021/08/11 00:52:47;;;;;;;1049.60;912.60;;;;;;;14.91;82.52;101777.88;4977057;28;20182;-77
2021/08/11 00:55:14;;;;;;;1018.03;862.70;;;;;;;14.77;84.81;101815.88;4978017;28;20455;-77
2021/08/11 00:57:41;;;;;;;971.23;865.20;;;;;;;13.94;85.74;101713.34;4978113;28;20456;-77
2021/08/11 01:00:07;;;;;;;1001.93;884.70;;;;;;;14.28;85.59;101750.22;4977052;28;20552;-77
2021/08/11 01:02:33;;;;;;;947.53;837.50;;;;;;;13.58;85.96;101660.47;4978480;28;20553;-78
2021/08/11 01:05:00;;;;;;;969.47;856.93;;;;;;;14.05;86.25;101703.84;4980463;28;20447;-77
2021/08/11 01:07:27;;;;;;;1013.30;905.43;;;;;;;14.36;87.59;101768.13;4979532;28;20495;-77
2021/08/11 01:09:54;;;;;;;1018.53;906.53;;;;;;;14.96;86.61;101827.78;4977894;28;20457;-77
2021/08/11 01:12:24;;;;;;;1033.97;922.70;;;;;;;14.47;86.34;101732.47;4979751;28;20436;-77
2021/08/11 01:14:53;;;;;;;1033.73;921.47;;;;;;;14.18;87.09;101701.22;4978506;28;20472;-77
2021/08/11 01:17:20;;;;;;;1028.27;915.30;;;;;;;14.74;87.97;101814.41;4978697;28;20816;-77
2021/08/11 01:19:47;;;;;;;1046.93;931.27;;;;;;;13.60;86.89;101582.09;4978193;28;20473;-78
2021/08/11 01:22:31;;;;;;;1022.17;909.97;;;;;;;14.94;86.98;101814.47;4979044;28;20465;-77
2021/08/11 01:25:10;;;;;;;1068.10;930.90;;;;;;;14.80;88.13;101810.88;4977105;28;20479;-77
2021/08/11 01:27:51;;;;;;;1042.60;925.33;;;;;;;14.67;88.49;101787.38;4978453;28;20937;-77
2021/08/11 01:30:24;;;;;;;1034.83;918.20;;;;;;;14.69;88.23;101792.56;4979280;28;20444;-77
2021/08/11 01:32:59;;;;;;;1073.77;942.53;;;;;;;15.01;87.89;101811.78;4977504;28;20528;-77
2021/08/11 01:35:51;;;;;;;1129.10;933.33;;;;;;;14.96;86.86;101785.38;4976137;28;20491;-77
2021/08/11 01:38:19;;;;;;;1045.43;906.47;;;;;;;14.29;87.20;101695.25;4976630;28;20973;-77
2021/08/11 01:40:54;;;;;;;1069.47;935.17;;;;;;;15.11;86.61;101794.13;4978760;28;20941;-77
2021/08/11 01:43:22;;;;;;;1050.37;925.03;;;;;;;15.11;87.50;101813.03;4977377;28;20512;-77
2021/08/11 01:45:49;;;;;;;1097.63;975.90;;;;;;;14.79;87.20;101763.31;4978403;28;20525;-77
2021/08/11 01:48:22;;;;;;;1068.10;950.17;;;;;;;14.88;87.96;101818.81;4974851;28;21075;-77
2021/08/11 01:50:49;;;;;;;1070.37;924.23;;;;;;;14.43;87.37;101715.00;4976615;28;20440;-77
2021/08/11 01:53:18;;;;;;;1078.70;915.53;;;;;;;15.19;86.53;101825.53;4978882;28;20443;-78
2021/08/11 01:55:47;;;;;;;1091.50;936.50;;;;;;;14.80;85.69;101737.97;4979536;28;20540;-77
2021/08/11 01:58:13;;;;;;;1090.00;920.63;;;;;;;13.77;85.41;101594.22;4978313;28;20534;-77
2021/08/11 02:00:40;;;;;;;1085.93;932.97;;;;;;;14.50;85.94;101696.97;4975471;28;20457;-77
2021/08/11 02:03:06;;;;;;;1123.83;955.33;;;;;;;15.45;85.51;101826.59;4978006;28;20588;-77
2021/08/11 02:05:32;;;;;;;1069.53;930.57;;;;;;;14.73;84.86;101702.03;4979381;28;20460;-77
2021/08/11 02:08:00;;;;;;;1091.67;902.93;;;;;;;15.60;84.36;101827.25;4977381;28;20469;-77
2021/08/11 02:10:27;;;;;;;1065.47;907.63;;;;;;;14.83;84.64;101691.63;4982247;28;20937;-77
2021/08/11 02:12:53;;;;;;;1154.73;962.33;;;;;;;13.46;85.10;101509.28;4982344;28;20926;-77
2021/08/11 02:15:19;;;;;;;1079.07;907.43;;;;;;;14.77;84.52;101715.94;4985060;28;20452;-77
2021/08/11 02:17:45;;;;;;;1159.83;955.37;;;;;;;13.89;84.34;101543.22;4984392;28;20468;-77
2021/08/11 02:20:12;;;;;;;1143.70;938.00;;;;;;;15.55;85.06;101819.75;4982967;28;20190;-77
2021/08/11 02:22:37;;;;;;;1105.40;939.57;;;;;;;14.88;85.75;101777.47;4982853;28;20238;-77
2021/08/11 02:25:09;;;;;;;1164.50;960.17;;;;;;;15.23;86.46;101788.13;4982879;28;20491;-77
2021/08/11 02:27:44;;;;;;;1111.50;932.50;;;;;;;14.87;86.77;101775.81;4980619;28;20179;-77
2021/08/11 02:30:13;;;;;;;1143.53;982.90;;;;;;;14.19;86.88;101648.91;4979579;28;20498;-77
2021/08/11 02:32:38;;;;;;;1088.47;939.73;;;;;;;15.37;86.68;101808.72;4980114;28;20432;-77
2021/08/11 02:35:20;;;;;;;1134.90;976.30;;;;;;;14.65;87.15;101705.75;4979594;28;20448;-77
2021/08/11 02:37:59;;;;;;;1128.20;974.60;;;;;;;13.77;87.53;101584.25;4980168;28;20214;-77
2021/08/11 02:40:57;;;;;;;1106.90;966.20;;;;;;;15.33;86.98;101805.59;4981358;28;20685;-77
2021/08/11 02:43:36;;;;;;;1106.27;970.07;;;;;;;14.94;87.19;101743.41;4979294;28;20929;-77
2021/08/11 02:46:08;;;;;;;1045.20;933.17;;;;;;;15.04;86.85;101751.91;4980774;28;20807;-77
2021/08/11 02:48:35;;;;;;;1078.23;961.77;;;;;;;15.33;87.55;101811.00;4979968;28;20475;-76
2021/08/11 02:51:03;;;;;;;1040.20;925.67;;;;;;;14.47;87.59;101678.47;4978331;28;20437;-77
2021/08/11 02:53:30;;;;;;;1070.53;957.07;;;;;;;15.33;87.09;101811.00;4983226;28;20440;-77
2021/08/11 02:55:55;;;;;;;1115.17;991.47;;;;;;;15.09;87.23;101781.88;4977184;28;20441;-76
2021/08/11 02:58:22;;;;;;;1077.47;958.53;;;;;;;15.31;86.52;101777.94;4981327;28;20468;-76
2021/08/11 03:00:49;;;;;;;1122.30;984.00;;;;;;;15.65;85.49;101813.06;4980815;28;20316;-76
2021/08/11 03:03:17;;;;;;;1103.03;970.20;;;;;;;14.99;86.39;101755.25;4979233;28;20465;-76
2021/08/11 03:05:42;;;;;;;1100.20;979.23;;;;;;;14.78;86.88;101714.91;4975993;28;20449;-76
2021/08/11 03:08:08;;;;;;;1082.33;951.23;;;;;;;13.79;86.44;101584.03;4980052;28;20508;-76
2021/08/11 03:10:34;;;;;;;1080.80;963.40;;;;;;;14.98;87.69;101782.47;4978598;28;20592;-76
2021/08/11 03:13:00;;;;;;;1074.67;954.67;;;;;;;14.87;87.70;101765.00;4978654;28;20190;-76
2021/08/11 03:15:27;;;;;;;1090.07;969.83;;;;;;;15.13;87.47;101813.69;4980297;28;20938;-76
2021/08/11 03:17:53;;;;;;;1083.50;945.67;;;;;;;14.53;87.46;101715.47;4973744;28;20301;-76
2021/08/11 03:20:19;;;;;;;1080.20;951.07;;;;;;;14.96;87.80;101784.56;4980338;28;20440;-76
2021/08/11 03:22:44;;;;;;;1127.80;985.67;;;;;;;14.79;87.81;101754.41;4980628;28;20467;-76
2021/08/11 03:25:10;;;;;;;1174.70;985.47;;;;;;;14.93;87.60;101758.78;4978223;28;20182;-76
2021/08/11 03:27:36;;;;;;;1127.73;970.33;;;;;;;14.94;87.64;101760.44;4979209;28;20262;-76
2021/08/11 03:30:02;;;;;;;1130.00;967.67;;;;;;;14.55;87.36;101678.31;4976237;28;20579;-76
2021/08/11 03:32:27;;;;;;;1194.47;989.70;;;;;;;15.17;88.05;101802.47;4977347;28;21163;-78
2021/08/11 03:34:53;;;;;;;1206.27;999.90;;;;;;;15.00;87.53;101738.00;4979517;28;20445;-76
2021/08/11 03:37:18;;;;;;;1171.53;999.90;;;;;;;14.57;88.24;101707.81;4978644;28;20186;-77
2021/08/11 03:39:44;;;;;;;1232.90;999.90;;;;;;;15.22;88.14;101816.19;4978011;28;20210;-78
2021/08/11 03:42:10;;;;;;;1216.80;999.90;;;;;;;15.28;87.87;101812.66;4976938;28;20187;-76
2021/08/11 03:44:35;;;;;;;1137.37;992.33;;;;;;;15.29;87.66;101811.63;4978727;28;20802;-76
2021/08/11 03:47:02;;;;;;;1217.93;999.90;;;;;;;15.35;87.72;101810.78;4977703;28;20913;-76
2021/08/11 03:49:28;;;;;;;1251.43;999.90;;;;;;;15.25;88.01;101796.88;4976801;28;20210;-76
2021/08/11 03:51:53;;;;;;;1211.57;999.90;;;;;;;15.33;87.67;101812.84;4977807;28;20453;-76
2021/08/11 03:54:18;;;;;;;1166.47;997.00;;;;;;;15.07;87.42;101781.22;4977351;28;20194;-76
2021/08/11 03:56:44;;;;;;;1237.50;999.90;;;;;;;14.63;87.05;101679.97;4977140;28;20190;-77
2021/08/11 03:59:09;;;;;;;1186.80;994.17;;;;;;;15.20;86.97;101767.75;4974670;28;20218;-76
2021/08/11 04:01:35;;;;;;;1174.27;995.13;;;;;;;14.40;87.96;101659.53;4976062;28;20188;-76
2021/08/11 04:04:00;;;;;;;1220.43;999.90;;;;;;;14.77;87.79;101718.66;4978988;28;20198;-76
2021/08/11 04:06:25;;;;;;;1238.37;999.90;;;;;;;14.77;87.93;101740.25;4979083;28;20205;-76
2021/08/11 04:08:51;;;;;;;1229.77;999.90;;;;;;;15.27;88.18;101805.56;4977143;28;20245;-75
2021/08/11 04:11:16;;;;;;;1256.57;999.90;;;;;;;14.89;88.14;101755.63;4976623;28;20266;-75
2021/08/11 04:13:41;;;;;;;1236.33;999.90;;;;;;;14.54;88.51;101698.25;4978038;28;20220;-75
2021/08/11 04:16:07;;;;;;;1187.73;996.77;;;;;;;15.22;88.76;101811.63;4979654;28;20698;-77
2021/08/11 04:18:32;;;;;;;1201.57;999.90;;;;;;;15.29;88.27;101815.16;4978378;28;20210;-76
2021/08/11 04:20:58;;;;;;;1208.50;994.17;;;;;;;14.42;87.91;101664.75;4980130;28;20564;-75
2021/08/11 04:23:23;;;;;;;1153.50;969.13;;;;;;;15.21;88.61;101818.03;4982341;28;20223;-76
2021/08/11 04:25:49;;;;;;;1197.53;983.43;;;;;;;15.06;89.26;101803.91;4978615;28;20185;-76
2021/08/11 04:28:14;;;;;;;1192.47;993.67;;;;;;;15.11;89.07;101809.53;4977559;28;20287;-75
2021/08/11 04:30:42;;;;;;;1117.57;975.77;;;;;;;15.12;88.80;101816.56;4977064;28;20684;-75
2021/08/11 04:33:08;;;;;;;1122.47;985.10;;;;;;;15.33;88.33;101850.69;4979598;28;20198;-75
2021/08/11 04:35:37;;;;;;;1169.70;999.90;;;;;;;14.66;89.29;101755.16;4980390;28;20437;-75
2021/08/11 04:38:02;;;;;;;1210.40;999.90;;;;;;;14.85;88.77;101758.97;4992561;28;20775;-75
2021/08/11 04:40:28;;;;;;;1162.53;999.90;;;;;;;15.23;88.90;101832.19;4979218;28;20465;-75
2021/08/11 04:42:53;;;;;;;1229.73;999.90;;;;;;;14.58;88.95;101736.44;4978327;28;20220;-75
2021/08/11 04:45:18;;;;;;;1203.90;999.90;;;;;;;15.16;89.27;101836.78;4976002;28;20186;-75
2021/08/11 04:47:44;;;;;;;1188.70;999.17;;;;;;;14.46;88.62;101696.53;4977434;28;20214;-76
2021/08/11 04:50:09;;;;;;;1207.37;999.90;;;;;;;15.26;88.75;101839.06;4979046;28;20181;-76
2021/08/11 04:52:35;;;;;;;1175.43;999.90;;;;;;;15.07;88.47;101797.44;4980899;28;21152;-75
2021/08/11 04:55:04;;;;;;;1201.60;999.90;;;;;;;15.38;88.36;101840.94;4980504;28;20187;-78
2021/08/11 04:57:29;;;;;;;1176.43;994.83;;;;;;;15.23;87.88;101817.84;4976726;28;20261;-75
2021/08/11 04:59:55;;;;;;;1190.93;999.90;;;;;;;14.91;88.39;101771.66;4978417;28;20436;-76
2021/08/11 05:02:20;;;;;;;1166.83;985.27;;;;;;;13.60;88.45;101584.78;4975590;28;20214;-75
2021/08/11 05:04:45;;;;;;;1121.03;996.63;;;;;;;15.14;88.62;101845.06;4974614;28;20218;-75
2021/08/11 05:07:11;;;;;;;1091.80;958.63;;;;;;;14.53;89.10;101753.28;4975468;28;20183;-75
2021/08/11 05:09:36;;;;;;;1191.67;999.90;;;;;;;14.50;88.38;101745.56;4976279;28;20217;-75
2021/08/11 05:12:02;;;;;;;1112.47;979.37;;;;;;;15.04;88.74;101831.13;4978090;28;20209;-76
2021/08/11 05:14:29;;;;;;;1158.67;992.97;;;;;;;14.96;88.66;101825.09;4979535;28;20187;-75
2021/08/11 05:16:55;;;;;;;1122.67;994.07;;;;;;;15.13;88.68;101854.22;4977911;28;20190;-75
2021/08/11 05:19:20;;;;;;;1169.90;999.90;;;;;;;15.16;88.21;101852.97;4980576;28;20527;-75
2021/08/11 05:21:45;;;;;;;1179.33;998.83;;;;;;;14.63;88.73;101786.09;4982153;28;20197;-75
2021/08/11 05:24:11;;;;;;;1157.37;999.90;;;;;;;14.51;88.88;101760.69;4979405;28;20286;-75
2021/08/11 05:26:38;;;;;;;1139.43;999.90;;;;;;;14.54;88.30;101749.53;4978363;28;20198;-75
2021/08/11 05:29:06;;;;;;;1175.00;999.90;;;;;;;13.18;88.68;101555.13;4978846;28;20206;-75
2021/08/11 05:31:32;;;;;;;1194.40;999.90;;;;;;;14.58;88.43;101750.81;4979779;28;21047;-75
2021/08/11 05:33:57;;;;;;;1256.40;999.90;;;;;;;15.15;88.68;101872.91;4980016;28;20437;-75
2021/08/11 05:36:23;;;;;;;1295.37;999.90;;;;;;;15.11;88.24;101856.28;4978281;28;20194;-75
2021/08/11 05:38:48;;;;;;;1186.30;999.90;;;;;;;14.82;88.40;101816.94;4979322;28;20202;-75
2021/08/11 05:41:13;;;;;;;1233.97;999.90;;;;;;;14.96;87.84;101839.41;4979102;28;20189;-75
2021/08/11 05:43:39;;;;;;;1248.00;999.90;;;;;;;14.72;87.84;101791.34;4979747;28;20271;-75
2021/08/11 05:46:05;;;;;;;1277.00;999.90;;;;;;;15.35;87.62;101875.66;4979656;28;20186;-75
2021/08/11 05:48:31;;;;;;;1270.13;999.90;;;;;;;14.78;87.53;101787.81;4977775;28;20206;-77
2021/08/11 05:50:59;;;;;;;1181.13;999.90;;;;;;;14.61;87.78;101758.50;4979735;28;20467;-76
2021/08/11 05:53:24;;;;;;;1077.03;959.90;;;;;;;15.29;87.42;101873.78;4984829;28;20186;-78
2021/08/11 05:55:51;;;;;;;1144.73;988.93;;;;;;;15.02;85.63;101781.88;4980140;28;20444;-78
2021/08/11 05:58:16;;;;;;;1217.03;999.90;;;;;;;14.78;85.45;101740.06;4980341;28;20276;-78
2021/08/11 06:00:41;;;;;;;1075.63;952.30;;;;;;;14.74;86.02;101771.19;4976777;28;20444;-76
2021/08/11 06:03:07;;;;;;;1126.00;975.77;;;;;;;15.30;86.68;101856.53;4980495;28;20682;-77
2021/08/11 06:05:35;;;;;;;1146.17;965.00;;;;;;;14.86;85.71;101747.13;4980526;28;20205;-76
2021/08/11 06:08:00;;;;;;;1125.03;955.73;;;;;;;15.54;85.53;101847.84;4982243;28;20205;-77
2021/08/11 06:10:25;;;;;;;1077.57;961.37;;;;;;;15.88;84.91;101891.13;4977959;28;20441;-77
2021/08/11 06:12:52;;;;;;;1089.27;971.40;;;;;;;15.09;85.06;101771.06;4975353;28;20757;-77
2021/08/11 06:15:18;;;;;;;1095.87;937.50;;;;;;;15.59;85.01;101860.72;4976810;28;20186;-77
2021/08/11 06:17:45;;;;;;;1169.70;999.90;;;;;;;15.40;85.19;101837.22;4976202;28;20980;-77
2021/08/11 06:20:12;;;;;;;1202.10;987.83;;;;;;;15.71;84.65;101866.41;4979746;28;20491;-77
2021/08/11 06:22:37;;;;;;;1098.73;973.70;;;;;;;15.33;84.82;101804.75;4977329;28;20469;-77
2021/08/11 06:25:03;;;;;;;1177.13;981.77;;;;;;;15.60;84.71;101849.69;4973398;28;20433;-77
2021/08/11 06:27:29;;;;;;;1158.27;990.43;;;;;;;16.02;84.62;101903.63;4977724;28;20639;-77
2021/08/11 06:29:54;;;;;;;1221.13;987.37;;;;;;;15.91;84.41;101864.50;4979010;28;20454;-77
2021/08/11 06:32:19;;;;;;;1147.40;997.43;;;;;;;15.33;84.07;101756.09;4979187;28;20190;-77
2021/08/11 06:34:45;;;;;;;1104.97;966.87;;;;;;;15.16;83.68;101731.38;4978263;28;20198;-77
2021/08/11 06:37:10;;;;;;;1039.07;927.90;;;;;;;14.48;82.34;101588.34;4978532;28;20651;-77
2021/08/11 06:39:36;;;;;;;1103.63;982.53;;;;;;;15.99;82.26;101822.84;4979291;28;20206;-78
2021/08/11 06:42:01;;;;;;;1050.40;936.77;;;;;;;16.27;82.91;101838.84;4979580;28;20201;-77
2021/08/11 06:44:26;;;;;;;1057.90;941.33;;;;;;;16.46;81.67;101877.72;4978758;28;20195;-77
2021/08/11 06:46:52;;;;;;;1041.53;927.17;;;;;;;16.10;82.21;101797.84;4977325;28;20189;-78
2021/08/11 06:49:18;;;;;;;1040.23;925.07;;;;;;;15.91;81.52;101772.53;4976425;28;20235;-77
2021/08/11 06:51:43;;;;;;;1072.40;951.47;;;;;;;16.55;81.00;101886.44;4977711;28;20733;-77
2021/08/11 06:54:12;;;;;;;1053.20;941.57;;;;;;;15.78;81.53;101803.13;4978825;28;20229;-76
2021/08/11 06:56:38;;;;;;;1043.10;933.97;;;;;;;16.14;81.15;101852.38;4979933;28;20640;-77
2021/08/11 06:59:04;;;;;;;1065.77;922.07;;;;;;;15.52;81.35;101776.06;4981355;28;20467;-77
2021/08/11 07:01:29;;;;;;;1013.07;904.20;;;;;;;15.96;81.57;101862.00;4981848;28;20527;-77
2021/08/11 07:03:54;;;;;;;1002.87;889.40;;;;;;;15.67;81.58;101786.66;4984134;28;20779;-77
2021/08/11 07:06:20;;;;;;;1047.70;932.90;;;;;;;16.32;81.96;101898.59;4980732;28;20913;-76
2021/08/11 07:08:45;;;;;;;1032.67;892.33;;;;;;;16.42;81.50;101901.69;4981051;28;20209;-76
2021/08/11 07:11:11;;;;;;;1097.33;944.77;;;;;;;16.02;80.65;101814.31;4983709;28;20182;-77
2021/08/11 07:13:36;;;;;;;1032.33;909.43;;;;;;;16.17;80.28;101824.91;4980930;28;20182;-76
2021/08/11 07:16:02;;;;;;;1046.53;930.40;;;;;;;16.65;81.40;101903.09;4980102;28;20229;-76
2021/08/11 07:18:27;;;;;;;1087.67;963.53;;;;;;;16.58;80.49;101903.13;4982473;28;20218;-76
2021/08/11 07:20:53;;;;;;;1066.07;936.80;;;;;;;15.94;80.83;101768.53;4980787;28;20194;-76
2021/08/11 07:23:18;;;;;;;1050.10;930.57;;;;;;;16.57;80.20;101857.28;4981722;28;20210;-76
2021/08/11 07:25:43;;;;;;;1112.70;965.37;;;;;;;15.59;80.31;101672.28;4982205;28;20204;-76
2021/08/11 07:28:09;;;;;;;1066.33;949.17;;;;;;;16.80;79.45;101852.22;4982874;28;20212;-76
2021/08/11 07:30:35;;;;;;;1084.73;938.57;;;;;;;16.74;78.25;101831.38;4981543;28;20267;-75
2021/08/11 07:33:00;;;;;;;984.30;879.17;;;;;;;17.12;78.25;101901.03;4983312;28;20200;-75
2021/08/11 07:35:26;;;;;;;1011.57;893.00;;;;;;;17.14;78.58;101913.34;4982001;28;20225;-75
2021/08/11 07:37:54;;;;;;;1030.73;878.77;;;;;;;17.28;77.87;101907.84;4981891;28;20210;-77
2021/08/11 07:40:21;;;;;;;969.17;863.27;;;;;;;15.85;76.00;101700.31;4979437;28;20193;-75
2021/08/11 07:42:47;;;;;;;1018.30;842.87;;;;;;;16.25;75.33;101747.00;4988379;28;20568;-76
2021/08/11 07:45:14;;;;;;;1007.47;883.40;;;;;;;17.47;75.42;101916.91;4979566;28;20855;-77
2021/08/11 07:47:40;;;;;;;976.13;841.93;;;;;;;17.52;74.70;101904.34;4982282;28;20961;-76
2021/08/11 07:50:06;;;;;;;1052.67;857.50;;;;;;;17.39;75.05;101882.75;4983432;28;20445;-75
2021/08/11 07:52:32;;;;;;;1027.10;885.60;;;;;;;16.12;74.04;101684.00;4985719;28;20186;-77
2021/08/11 07:54:57;;;;;;;1033.87;868.60;;;;;;;17.28;74.60;101869.91;4979717;28;20448;-75
2021/08/11 07:57:23;;;;;;;1035.47;871.47;;;;;;;17.59;74.48;101918.72;4979977;28;20201;-77
2021/08/11 07:59:48;;;;;;;1038.03;893.40;;;;;;;17.57;74.25;101884.72;4980495;28;20209;-78
2021/08/11 08:02:14;;;;;;;1030.93;878.03;;;;;;;17.77;73.34;101923.38;4982000;28;20224;-76
2021/08/11 08:04:41;;;;;;;1124.83;907.30;;;;;;;17.44;73.88;101865.81;4979949;28;20280;-76
2021/08/11 08:07:06;;;;;;;1070.50;915.90;;;;;;;17.77;73.78;101920.69;4979600;28;20190;-75
2021/08/11 08:09:32;;;;;;;1131.47;916.07;;;;;;;17.78;72.42;101919.66;4979579;28;20461;-75
2021/08/11 08:11:57;;;;;;;1208.47;930.97;;;;;;;17.09;71.33;101829.13;4979046;28;20190;-76
2021/08/11 08:14:23;;;;;;;1243.27;963.23;;;;;;;17.39;71.23;101856.47;4978143;28;20189;-76
2021/08/11 08:16:49;;;;;;;1272.30;951.83;;;;;;;16.54;71.51;101717.72;4981188;28;20709;-78
2021/08/11 08:19:14;;;;;;;1379.97;973.87;;;;;;;17.35;72.21;101811.84;4981335;28;20595;-77
2021/08/11 08:21:39;;;;;;;1491.03;999.90;;;;;;;17.98;72.12;101924.91;4981314;28;20655;-75
2021/08/11 08:24:05;;;;;;;1566.07;999.90;;;;;;;18.16;72.35;101920.59;4982208;28;20214;-75
2021/08/11 08:26:30;;;;;;;1633.93;999.90;;;;;;;17.50;72.14;101835.97;4981439;28;20666;-76
2021/08/11 08:28:56;;;;;;;1648.07;999.90;;;;;;;17.89;72.75;101923.53;4980465;28;20717;-76
2021/08/11 08:31:21;;;;;;;1716.57;999.90;;;;;;;17.37;72.99;101815.16;4978879;28;20178;-76
2021/08/11 08:33:47;;;;;;;1683.83;999.90;;;;;;;17.58;72.39;101849.22;4980639;28;20186;-77
2021/08/11 08:36:12;;;;;;;1786.87;999.90;;;;;;;17.88;71.90;101912.88;4982088;28;20610;-79
2021/08/11 08:38:38;;;;;;;1749.03;999.90;;;;;;;18.08;72.48;101932.59;4980508;28;20690;-77
2021/08/11 08:41:03;;;;;;;1782.53;999.90;;;;;;;18.21;72.33;101935.16;4978636;28;20196;-74
2021/08/11 08:43:28;;;;;;;1666.67;999.90;;;;;;;18.16;71.84;101926.84;4981356;28;20323;-75
2021/08/11 08:45:54;;;;;;;1685.87;999.90;;;;;;;17.84;71.97;101872.63;4980317;28;20194;-75
2021/08/11 08:48:20;;;;;;;1778.53;999.90;;;;;;;18.24;70.49;101918.41;4979017;28;20297;-74
2021/08/11 08:50:49;;;;;;;1834.53;999.90;;;;;;;18.37;69.74;101936.50;4981406;28;20647;-75
2021/08/11 08:53:22;;;;;;;2146.33;999.90;;;;;;;18.30;69.36;101933.81;4977836;28;20175;-74
2021/08/11 08:55:47;;;;;;;2025.70;999.90;;;;;;;18.29;70.07;101929.44;4977926;28;20796;-76
2021/08/11 08:58:13;;;;;;;2139.73;999.90;;;;;;;18.25;69.72;101898.38;4977225;28;20460;-76
2021/08/11 09:00:39;;;;;;;2161.80;999.90;;;;;;;18.57;69.95;101935.44;4976667;28;20197;-76
2021/08/11 09:03:05;;;;;;;2266.67;999.90;;;;;;;18.50;68.50;101943.66;4979927;28;20289;-76
2021/08/11 09:05:32;;;;;;;2266.67;999.90;;;;;;;18.61;69.46;101937.47;4979214;28;20511;-77
2021/08/11 09:07:57;;;;;;;2266.67;999.90;;;;;;;18.41;69.27;101926.00;4978277;28;20472;-75
2021/08/11 09:10:25;;;;;;;2266.67;999.90;;;;;;;18.59;69.55;101947.75;4978118;28;20635;-75
2021/08/11 09:13:05;;;;;;;2266.67;999.90;;;;;;;18.66;70.50;101944.94;4978298;28;20186;-75
2021/08/11 09:15:40;;;;;;;2266.67;999.90;;;;;;;18.79;69.93;101941.28;4980421;28;20875;-76
2021/08/11 09:18:18;;;;;;;2266.67;999.90;;;;;;;18.87;68.83;101952.69;4979165;28;20470;-76
2021/08/11 09:20:46;;;;;;;2266.67;999.90;;;;;;;18.58;69.55;101918.09;4980745;28;20438;-75
2021/08/11 09:23:14;;;;;;;2266.67;999.90;;;;;;;18.86;69.85;101951.03;4978115;28;20598;-75
2021/08/11 09:26:00;;;;;;;2266.67;999.90;;;;;;;18.55;69.45;101861.50;4978412;28;20451;-76
2021/08/11 09:28:27;;;;;;;2266.67;999.90;;;;;;;18.91;69.02;101926.69;4979596;28;20460;-76
2021/08/11 09:30:53;;;;;;;2266.67;999.90;;;;;;;18.82;69.18;101914.47;4979527;28;21247;-75
2021/08/11 09:33:24;;;;;;;2266.67;999.90;;;;;;;18.98;68.73;101940.25;4978255;28;20441;-78
2021/08/11 09:35:50;;;;;;;2266.67;999.90;;;;;;;17.58;69.31;101737.19;4978283;28;20610;-77
2021/08/11 09:38:16;;;;;;;2266.67;999.90;;;;;;;18.99;68.91;101950.03;4978512;28;20489;-76
2021/08/11 09:40:43;;;;;;;2266.67;999.90;;;;;;;18.96;67.89;101947.78;4978646;28;20276;-75
2021/08/11 09:43:10;;;;;;;2266.67;999.90;;;;;;;19.22;69.02;101940.34;4979006;28;20469;-76
2021/08/11 09:45:51;;;;;;;2266.67;999.90;;;;;;;19.18;67.75;101950.88;4978890;28;20806;-77
2021/08/11 09:48:24;;;;;;;2266.67;999.90;;;;;;;19.26;68.01;101941.53;4980916;28;20464;-76
2021/08/11 09:51:04;;;;;;;2266.67;999.90;;;;;;;19.35;67.65;101940.16;4977491;28;20437;-76
2021/08/11 09:53:29;;;;;;;2266.67;999.90;;;;;;;19.49;68.45;101938.91;4979302;28;20435;-77
2021/08/11 09:56:09;;;;;;;2266.67;999.90;;;;;;;19.56;68.52;101945.09;4978376;28;20445;-76
2021/08/11 09:58:42;;;;;;;2266.67;999.90;;;;;;;19.73;66.98;101947.16;4978989;28;20214;-76
2021/08/11 10:01:16;;;;;;;2266.67;999.90;;;;;;;19.75;67.41;101942.31;4978089;28;20451;-76
2021/08/11 10:04:02;;;;;;;2266.67;999.90;;;;;;;19.88;67.75;101905.91;4976670;28;20465;-75
2021/08/11 10:06:28;;;;;;;2266.67;999.90;;;;;;;19.57;67.32;101888.78;4978071;28;20930;-76
2021/08/11 10:08:54;;;;;;;2266.67;999.90;;;;;;;19.85;64.22;101940.69;4979287;28;21013;-78
2021/08/11 10:11:36;;;;;;;2266.67;999.90;;;;;;;19.44;64.15;101887.09;4980242;28;20814;-79
2021/08/11 10:14:04;;;;;;;2266.67;999.03;;;;;;;19.86;64.83;101950.50;4994739;28;20445;-78
2021/08/11 10:16:32;;;;;;;2266.67;950.47;;;;;;;19.54;63.63;101862.84;4977866;28;21013;-77
2021/08/11 10:18:58;;;;;;;2266.67;999.90;;;;;;;20.14;64.76;101950.94;4979990;28;20503;-75
2021/08/11 10:21:23;;;;;;;2266.67;999.90;;;;;;;20.16;63.45;101929.72;4975542;28;21434;-74
2021/08/11 10:23:49;;;;;;;2266.67;999.90;;;;;;;19.85;64.39;101916.19;4977828;28;20466;-76
2021/08/11 10:26:17;;;;;;;2266.67;999.90;;;;;;;18.92;63.48;101746.25;4979181;28;20585;-77
2021/08/11 10:28:45;;;;;;;2266.67;999.90;;;;;;;19.64;64.76;101843.22;4977938;28;20698;-75
2021/08/11 10:31:11;;;;;;;2266.67;999.90;;;;;;;20.19;64.14;101940.13;4979650;28;20540;-76
2021/08/11 10:33:36;;;;;;;2266.67;999.90;;;;;;;20.20;62.86;101929.00;4981490;28;20539;-74
2021/08/11 10:36:03;;;;;;;2266.67;999.90;;;;;;;20.05;63.41;101883.19;4983681;28;20272;-76
2021/08/11 10:38:29;;;;;;;2266.67;999.90;;;;;;;20.09;61.68;101878.91;4979985;28;20216;-75
2021/08/11 10:40:54;;;;;;;2266.67;999.90;;;;;;;20.33;61.38;101933.38;4982296;28;20445;-75
2021/08/11 10:43:21;;;;;;;2266.67;999.17;;;;;;;20.31;61.45;101914.56;4981891;28;20476;-75
2021/08/11 10:46:00;;;;;;;2266.67;998.40;;;;;;;20.69;61.29;101950.59;4983725;28;20198;-78
2021/08/11 10:48:26;;;;;;;2266.67;999.90;;;;;;;20.19;60.98;101899.28;4983171;28;20473;-78